Time;durP1;ratioP1;P1;durP2;ratioP2;P2;SDS_P1;SDS_P2;PMS_P1;PMS_P2;Temp;Humidity;BMP_temperature;BMP_pressure;BME280_temperature;BME280_humidity;BME280_pressure;Samples;Min_cycle;Max_cycle;Signal;HPM_P1;HPM_P2
2020/12/01 00:01:03;;;;;;;4.75;3.25;;;;;;;25.59;28.57;96752.69;4960197;28;20046;-41
2020/12/01 00:03:29;;;;;;;4.00;3.10;;;;;;;25.59;28.68;96748.25;4955371;28;20071;-43
2020/12/01 00:05:54;;;;;;;4.47;3.00;;;;;;;25.60;28.92;96754.38;4956687;28;20057;-42
2020/12/01 00:08:20;;;;;;;5.45;3.58;;;;;;;25.60;28.84;96747.34;4961735;28;20114;-41
2020/12/01 00:10:45;;;;;;;6.32;2.88;;;;;;;25.60;28.77;96733.38;4961953;28;20050;-43
2020/12/01 00:13:11;;;;;;;4.07;3.10;;;;;;;25.61;28.69;96745.56;4962792;28;20452;-41
2020/12/01 00:15:37;;;;;;;5.90;2.97;;;;;;;25.61;28.67;96735.06;4958529;28;20050;-40
2020/12/01 00:18:02;;;;;;;3.83;3.10;;;;;;;25.61;28.80;96727.19;4952983;28;20105;-44
2020/12/01 00:20:28;;;;;;;5.95;3.20;;;;;;;25.60;28.69;96722.88;4960695;28;20780;-43
2020/12/01 00:22:54;;;;;;;8.98;3.17;;;;;;;25.58;28.66;96720.31;4951001;28;20736;-44
2020/12/01 00:25:19;;;;;;;4.00;3.22;;;;;;;25.56;28.93;96712.53;4963552;28;20074;-42
2020/12/01 00:27:44;;;;;;;5.40;3.38;;;;;;;25.56;28.77;96704.66;4949581;28;20050;-44
2020/12/01 00:30:12;;;;;;;3.92;2.97;;;;;;;25.56;28.94;96698.59;4948383;28;20593;-43
2020/12/01 00:32:38;;;;;;;5.20;2.90;;;;;;;25.53;28.99;96696.94;4948821;28;20057;-43
2020/12/01 00:35:05;;;;;;;3.33;2.85;;;;;;;25.52;28.78;96684.72;4952116;28;20031;-44
2020/12/01 00:37:31;;;;;;;4.55;3.15;;;;;;;25.52;28.82;96678.66;4949029;28;20051;-42
2020/12/01 00:39:57;;;;;;;3.25;2.78;;;;;;;25.50;28.74;96670.88;4960071;28;20109;-39
2020/12/01 00:42:23;;;;;;;3.95;3.10;;;;;;;25.49;28.74;96671.81;4951056;28;20051;-43
2020/12/01 00:44:49;;;;;;;5.28;2.80;;;;;;;25.48;28.68;96659.63;4959968;28;20076;-42
2020/12/01 00:47:15;;;;;;;3.47;2.83;;;;;;;25.48;28.82;96666.63;4957146;28;20501;-39
2020/12/01 00:49:40;;;;;;;4.25;3.00;;;;;;;25.47;28.61;96657.91;4958844;28;20039;-42
2020/12/01 00:52:06;;;;;;;4.72;2.85;;;;;;;25.47;28.90;96647.41;4957432;28;20555;-44
2020/12/01 00:54:31;;;;;;;3.55;2.63;;;;;;;25.48;28.92;96643.03;4963245;28;20168;-40
2020/12/01 00:56:57;;;;;;;3.65;2.67;;;;;;;25.48;28.87;96638.63;4962360;28;20058;-42
2020/12/01 00:59:23;;;;;;;4.57;3.10;;;;;;;25.49;28.79;96637.69;4952745;28;20066;-40
2020/12/01 01:01:48;;;;;;;3.67;2.70;;;;;;;25.47;28.82;96629.03;4956046;28;20034;-42
2020/12/01 01:04:14;;;;;;;3.55;2.70;;;;;;;25.46;28.75;96622.09;4964676;28;20089;-42
2020/12/01 01:06:40;;;;;;;4.00;2.70;;;;;;;25.45;28.87;96623.88;4963323;28;20421;-38
2020/12/01 01:09:06;;;;;;;3.20;2.50;;;;;;;25.46;28.73;96622.09;4957779;28;20070;-40
2020/12/01 01:11:32;;;;;;;4.00;2.83;;;;;;;25.46;28.81;96622.09;4955879;28;20042;-41
2020/12/01 01:13:58;;;;;;;2.58;2.15;;;;;;;25.47;28.81;96621.16;4963793;28;20058;-41
2020/12/01 01:16:24;;;;;;;3.58;2.60;;;;;;;25.48;28.73;96620.25;4951658;28;20047;-41
2020/12/01 01:18:49;;;;;;;3.25;2.45;;;;;;;25.47;28.62;96618.53;4953093;28;20047;-41
2020/12/01 01:21:15;;;;;;;3.67;2.80;;;;;;;25.47;28.68;96615.94;4950425;28;20035;-42
2020/12/01 01:23:41;;;;;;;4.22;2.72;;;;;;;25.48;28.70;96608.91;4952832;28;20043;-43
2020/12/01 01:26:07;;;;;;;4.82;2.95;;;;;;;25.47;28.87;96601.97;4952453;28;20531;-42
2020/12/01 01:28:33;;;;;;;4.00;2.95;;;;;;;25.45;28.64;96609.94;4955343;28;20173;-42
2020/12/01 01:30:58;;;;;;;4.18;2.75;;;;;;;25.45;28.63;96604.69;4954317;28;20078;-46
2020/12/01 01:33:24;;;;;;;3.53;2.60;;;;;;;25.45;28.74;96594.19;4960029;28;20062;-39
2020/12/01 01:35:49;;;;;;;2.90;2.40;;;;;;;25.45;28.76;96588.94;4969973;28;20628;-41
2020/12/01 01:38:15;;;;;;;3.55;2.40;;;;;;;25.43;28.61;96590.78;4957721;28;20047;-41
2020/12/01 01:40:40;;;;;;;2.80;2.35;;;;;;;25.43;28.68;96580.28;4961073;28;20035;-39
2020/12/01 01:43:05;;;;;;;3.65;2.60;;;;;;;25.42;28.73;96587.34;4967870;28;20129;-40
2020/12/01 01:45:39;;;;;;;3.75;2.30;;;;;;;25.43;28.72;96585.53;4963553;28;20054;-40
2020/12/01 01:48:24;;;;;;;2.40;2.10;;;;;;;25.43;28.65;96581.16;4961751;28;20034;-40
2020/12/01 01:51:00;;;;;;;3.10;2.50;;;;;;;25.44;28.67;96576.75;4960808;28;20035;-42
2020/12/01 01:53:26;;;;;;;3.22;2.40;;;;;;;25.44;28.74;96571.50;4958889;28;20049;-37
2020/12/01 01:55:55;;;;;;;4.25;2.60;;;;;;;25.41;28.76;96556.78;4962799;28;20101;-39
2020/12/01 01:58:21;;;;;;;5.53;3.00;;;;;;;25.43;28.84;96557.53;4983146;28;20066;-42
2020/12/01 02:00:56;;;;;;;3.67;2.58;;;;;;;25.44;28.66;96555.78;4956508;28;20035;-40
2020/12/01 02:03:24;;;;;;;3.33;2.50;;;;;;;25.45;28.73;96557.47;4952789;28;20389;-43
2020/12/01 02:05:50;;;;;;;5.75;2.60;;;;;;;25.46;28.50;96543.41;4955957;28;20100;-39
2020/12/01 02:08:16;;;;;;;3.28;2.25;;;;;;;25.46;28.83;96540.78;4956721;28;20520;-41
2020/12/01 02:10:42;;;;;;;3.70;2.55;;;;;;;25.46;28.66;96532.91;4955113;28;20039;-39
2020/12/01 02:13:08;;;;;;;3.15;2.50;;;;;;;25.47;28.59;96531.16;4957271;28;20057;-37
2020/12/01 02:15:34;;;;;;;4.78;2.28;;;;;;;25.47;28.79;96521.47;4957283;28;20404;-41
2020/12/01 02:17:59;;;;;;;3.50;2.30;;;;;;;25.47;28.63;96518.03;4965312;28;20046;-39
2020/12/01 02:20:27;;;;;;;2.90;2.00;;;;;;;25.47;28.88;96516.22;4955823;28;20035;-37
2020/12/01 02:22:54;;;;;;;3.05;2.38;;;;;;;25.44;28.63;96504.13;4962306;28;20428;-41
2020/12/01 02:25:20;;;;;;;2.78;2.25;;;;;;;25.48;28.67;96504.84;4967190;28;20046;-41
2020/12/01 02:27:52;;;;;;;4.35;2.45;;;;;;;25.48;28.75;96499.59;4953501;28;20497;-39
2020/12/01 02:30:17;;;;;;;2.70;2.20;;;;;;;25.49;28.64;96496.03;4951091;28;20594;-42
2020/12/01 02:32:43;;;;;;;2.70;2.25;;;;;;;25.50;28.56;96475.84;4959659;28;20046;-40
2020/12/01 02:35:11;;;;;;;2.38;2.15;;;;;;;25.50;28.73;96475.84;4967177;28;20046;-38
2020/12/01 02:37:38;;;;;;;2.70;2.10;;;;;;;25.49;28.64;96461.91;4961480;28;20041;-39
2020/12/01 02:40:12;;;;;;;3.72;2.47;;;;;;;25.49;28.64;96454.03;4959866;28;20047;-41
2020/12/01 02:42:38;;;;;;;3.17;2.42;;;;;;;25.50;28.58;96449.63;4959693;28;20104;-39
2020/12/01 02:45:04;;;;;;;2.83;2.10;;;;;;;25.49;28.80;96448.78;4960367;28;20043;-37
2020/12/01 02:47:31;;;;;;;3.08;2.30;;;;;;;25.49;28.69;96443.56;4958365;28;20540;-39
2020/12/01 02:49:56;;;;;;;2.10;1.90;;;;;;;25.47;28.72;96431.47;4961425;28;20055;-41
2020/12/01 02:52:23;;;;;;;2.63;2.15;;;;;;;25.46;28.81;96433.22;4952787;28;20035;-40
2020/12/01 02:54:52;;;;;;;2.58;2.08;;;;;;;25.48;28.65;96425.28;4960311;28;20126;-43
2020/12/01 02:57:21;;;;;;;3.00;2.30;;;;;;;25.47;28.50;96423.59;4968945;28;20496;-42
2020/12/01 02:59:47;;;;;;;3.20;2.40;;;;;;;25.47;28.51;96424.41;4960961;28;20078;-42
2020/12/01 03:02:12;;;;;;;3.00;2.05;;;;;;;25.46;28.69;96412.25;4959257;28;21012;-42
2020/12/01 03:04:38;;;;;;;3.35;2.47;;;;;;;25.44;28.54;96417.56;4959214;28;20054;-41
2020/12/01 03:07:04;;;;;;;2.17;1.90;;;;;;;25.44;28.75;96414.13;4959825;28;20046;-39
2020/12/01 03:09:30;;;;;;;2.72;2.20;;;;;;;25.42;28.85;96401.09;4958528;28;20420;-43
2020/12/01 03:11:56;;;;;;;2.53;2.20;;;;;;;25.40;28.64;96402.13;4955429;28;20695;-40
2020/12/01 03:14:23;;;;;;;2.50;2.10;;;;;;;25.38;28.64;96402.19;4963231;28;20047;-42
2020/12/01 03:16:50;;;;;;;2.50;1.92;;;;;;;25.39;28.82;96401.25;4954900;28;20057;-41
2020/12/01 03:19:16;;;;;;;2.60;1.90;;;;;;;25.38;28.76;96390.84;4953447;28;20393;-43
2020/12/01 03:21:41;;;;;;;2.22;1.90;;;;;;;25.39;28.81;96390.75;4964618;28;20117;-39
2020/12/01 03:24:07;;;;;;;2.97;2.25;;;;;;;25.39;28.77;96390.75;4963065;28;20038;-45
2020/12/01 03:26:33;;;;;;;2.72;2.20;;;;;;;25.39;28.60;96384.66;4957566;28;20047;-43
2020/12/01 03:28:59;;;;;;;2.90;2.20;;;;;;;25.39;28.62;96390.75;4958154;28;20074;-39
2020/12/01 03:31:24;;;;;;;2.50;1.98;;;;;;;25.39;28.88;96387.28;4959424;28;20440;-39
2020/12/01 03:33:50;;;;;;;4.10;2.22;;;;;;;25.38;28.85;96373.34;4962036;28;20043;-43
2020/12/01 03:36:16;;;;;;;3.15;1.98;;;;;;;25.38;28.78;96377.72;4968403;28;20035;-42
2020/12/01 03:38:42;;;;;;;3.08;1.83;;;;;;;25.36;28.85;96369.13;4959311;28;20061;-42
2020/12/01 03:41:09;;;;;;;2.47;2.05;;;;;;;25.36;28.73;96371.75;4962435;28;20035;-42
2020/12/01 03:43:34;;;;;;;2.63;2.03;;;;;;;25.37;28.75;96365.56;4951681;28;20081;-42
2020/12/01 03:46:01;;;;;;;2.08;1.77;;;;;;;25.34;28.62;96365.72;4963132;28;20046;-43
2020/12/01 03:48:27;;;;;;;2.22;1.95;;;;;;;25.30;28.82;96365.06;4959504;28;20416;-41
2020/12/01 03:50:52;;;;;;;2.00;1.80;;;;;;;25.30;28.82;96368.56;4962358;28;20039;-42
2020/12/01 03:53:18;;;;;;;1.95;1.83;;;;;;;25.30;29.16;96360.69;4957973;28;20047;-45
2020/12/01 03:55:43;;;;;;;2.20;1.65;;;;;;;25.33;28.73;96369.28;4953547;28;20046;-44
2020/12/01 03:58:09;;;;;;;2.10;1.80;;;;;;;25.34;28.89;96363.97;4961904;28;20688;-39
2020/12/01 04:00:34;;;;;;;2.50;1.88;;;;;;;25.35;28.69;96363.03;4957727;28;20049;-41
2020/12/01 04:03:01;;;;;;;1.63;1.52;;;;;;;25.35;28.68;96355.16;4961795;28;20051;-40
2020/12/01 04:05:27;;;;;;;1.98;1.60;;;;;;;25.36;28.83;96353.38;4952955;28;20042;-41
2020/12/01 04:07:53;;;;;;;2.60;2.08;;;;;;;25.37;28.92;96355.06;4957676;28;20461;-41
2020/12/01 04:10:19;;;;;;;2.33;1.83;;;;;;;25.37;28.81;96345.44;4954290;28;20105;-41
2020/12/01 04:12:45;;;;;;;2.13;1.77;;;;;;;25.38;28.83;96347.13;4962099;28;20050;-40
2020/12/01 04:15:11;;;;;;;1.90;1.70;;;;;;;25.38;28.77;96346.25;4960309;28;20042;-37
2020/12/01 04:17:37;;;;;;;2.28;1.70;;;;;;;25.38;28.78;96346.25;4954495;28;20512;-40
2020/12/01 04:20:04;;;;;;;3.15;1.90;;;;;;;25.37;28.85;96341.94;4953504;28;20083;-42
2020/12/01 04:22:30;;;;;;;2.55;1.75;;;;;;;25.37;28.62;96334.09;4950980;28;20038;-39
2020/12/01 04:24:55;;;;;;;2.15;1.75;;;;;;;25.35;28.80;96330.72;4966333;28;20090;-38
2020/12/01 04:27:21;;;;;;;2.03;1.77;;;;;;;25.35;28.96;96328.09;4955765;28;20121;-39
2020/12/01 04:29:47;;;;;;;2.45;1.67;;;;;;;25.36;28.89;96324.53;4958039;28;20090;-41
2020/12/01 04:32:13;;;;;;;1.90;1.67;;;;;;;25.36;28.78;96321.91;4957526;28;20035;-44
2020/12/01 04:34:38;;;;;;;2.20;1.52;;;;;;;25.35;28.90;96325.47;4953385;28;20043;-41
2020/12/01 04:37:04;;;;;;;2.30;1.65;;;;;;;25.36;28.91;96327.16;4961036;28;20046;-38
2020/12/01 04:39:30;;;;;;;2.50;1.70;;;;;;;25.36;28.76;96316.66;4962590;28;20528;-41
2020/12/01 04:41:56;;;;;;;2.60;1.70;;;;;;;25.34;28.81;96322.00;4959763;28;20058;-42
2020/12/01 04:44:29;;;;;;;2.28;1.90;;;;;;;25.34;28.90;96315.91;4959401;28;20595;-41
2020/12/01 04:46:54;;;;;;;3.08;1.33;;;;;;;25.35;29.05;96314.97;4941691;28;20042;-40
2020/12/01 04:49:27;;;;;;;1.55;1.45;;;;;;;25.34;28.99;96310.66;4957094;28;20404;-43
2020/12/01 04:52:20;;;;;;;2.72;1.80;;;;;;;25.34;29.11;96308.03;4937900;28;20031;-41
2020/12/01 04:55:14;;;;;;;3.55;1.73;;;;;;;25.34;28.80;96302.78;4961426;28;20023;-42
2020/12/01 04:57:51;;;;;;;2.63;1.67;;;;;;;25.33;28.84;96306.34;4945827;28;20030;-43
2020/12/01 05:00:24;;;;;;;2.10;1.88;;;;;;;25.31;28.68;96299.41;4953804;28;20035;-41
2020/12/01 05:03:03;;;;;;;1.73;1.55;;;;;;;25.29;29.05;96301.28;4952980;28;20496;-42
2020/12/01 05:08:38;;;;;;;2.15;1.83;;;;;;;25.31;29.02;96299.41;4951877;28;20980;-43
2020/12/01 05:11:14;;;;;;;1.70;1.60;;;;;;;25.33;29.05;96301.94;4948915;28;20043;-40
2020/12/01 05:13:40;;;;;;;2.60;1.50;;;;;;;25.33;29.10;96306.34;4948676;28;20591;-41
2020/12/01 05:16:41;;;;;;;1.38;1.27;;;;;;;25.31;29.12;96301.19;4957178;28;20529;-41
2020/12/01 05:19:31;;;;;;;2.00;1.50;;;;;;;25.33;29.08;96296.72;4940071;28;20116;-39
2020/12/01 05:21:58;;;;;;;1.58;1.40;;;;;;;25.33;29.21;96306.34;4954335;28;20294;-41
2020/12/01 05:24:23;;;;;;;3.55;1.40;;;;;;;25.33;28.92;96295.84;4957794;28;20425;-44
2020/12/01 05:26:49;;;;;;;1.60;1.38;;;;;;;25.33;29.13;96298.47;4958308;28;20046;-40
2020/12/01 05:29:24;;;;;;;9.18;3.53;;;;;;;25.29;29.05;96293.41;4954368;28;20684;-42
2020/12/01 05:31:50;;;;;;;5.70;2.67;;;;;;;25.28;29.12;96294.34;4952851;28;20412;-44
2020/12/01 05:34:17;;;;;;;5.78;1.75;;;;;;;25.29;29.18;96296.03;4957205;28;20058;-42
2020/12/01 05:36:43;;;;;;;2.10;1.83;;;;;;;25.30;29.11;96295.13;4957903;28;20042;-44
2020/12/01 05:39:11;;;;;;;2.42;1.83;;;;;;;25.30;29.11;96297.75;4964864;28;20389;-40
2020/12/01 05:41:37;;;;;;;2.03;1.75;;;;;;;25.31;29.00;96302.03;4954242;28;20046;-45
2020/12/01 05:44:22;;;;;;;2.70;1.90;;;;;;;25.29;29.07;96292.56;4953567;28;20043;-41
2020/12/01 05:47:05;;;;;;;2.53;1.60;;;;;;;25.34;29.02;96293.16;4952951;28;20039;-45
2020/12/01 05:49:34;;;;;;;1.73;1.63;;;;;;;25.34;29.12;96301.00;4970173;28;20054;-41
2020/12/01 05:52:04;;;;;;;2.30;1.50;;;;;;;25.36;29.16;96300.94;4950251;28;20039;-41
2020/12/01 05:54:40;;;;;;;2.80;1.80;;;;;;;25.35;28.99;96299.25;4959735;28;20622;-42
2020/12/01 05:57:25;;;;;;;1.92;1.48;;;;;;;25.38;28.92;96299.03;4958524;28;20405;-43
2020/12/01 05:59:56;;;;;;;1.42;1.33;;;;;;;25.38;29.24;96299.03;4960237;28;20504;-43
2020/12/01 06:02:33;;;;;;;1.70;1.35;;;;;;;25.40;29.09;96299.81;4957382;28;20666;-42
2020/12/01 06:04:58;;;;;;;2.15;1.40;;;;;;;25.40;28.86;96297.19;4959481;28;20027;-45
2020/12/01 06:07:27;;;;;;;4.05;1.48;;;;;;;25.41;29.04;96299.72;4957748;28;20058;-42
2020/12/01 06:10:07;;;;;;;2.33;1.45;;;;;;;25.42;29.09;96298.78;4961561;28;20429;-43
2020/12/01 06:12:32;;;;;;;1.60;1.50;;;;;;;25.42;29.03;96303.19;4962114;28;20058;-39
2020/12/01 06:14:59;;;;;;;1.83;1.58;;;;;;;25.43;29.01;96297.84;4959942;28;20093;-42
2020/12/01 06:18:01;;;;;;;1.38;1.27;;;;;;;25.44;29.09;96296.06;4956784;28;20049;-40
2020/12/01 06:20:32;;;;;;;1.80;1.55;;;;;;;25.43;28.92;96299.59;4961252;28;20115;-41
2020/12/01 06:23:23;;;;;;;1.67;1.58;;;;;;;25.45;29.10;96301.19;4950746;28;20038;-40
2020/12/01 06:26:25;;;;;;;1.90;1.70;;;;;;;25.47;29.00;96292.44;4961128;28;20119;-44
2020/12/01 06:28:58;;;;;;;2.00;1.63;;;;;;;25.47;28.88;96287.19;4965560;28;20492;-41
2020/12/01 06:31:48;;;;;;;1.90;1.40;;;;;;;25.47;28.86;96290.63;4983929;28;20038;-42
2020/12/01 06:34:57;;;;;;;1.70;1.55;;;;;;;25.48;29.02;96288.84;4964248;28;20393;-41
2020/12/01 06:37:45;;;;;;;4.35;1.23;;;;;;;25.48;28.98;96296.72;4965544;28;20496;-43
2020/12/01 06:40:27;;;;;;;2.55;1.40;;;;;;;25.47;29.05;96287.19;4959036;28;20026;-42
2020/12/01 06:42:58;;;;;;;2.03;1.65;;;;;;;25.47;29.09;96284.56;4961703;28;20082;-42
2020/12/01 06:45:28;;;;;;;1.40;1.30;;;;;;;25.49;29.05;96285.28;4946408;28;20034;-45
2020/12/01 06:48:00;;;;;;;1.58;1.40;;;;;;;25.48;28.96;96287.09;4961574;28;20047;-43
2020/12/01 06:50:26;;;;;;;2.15;1.50;;;;;;;25.49;28.90;96285.28;4943676;28;20038;-41
2020/12/01 06:52:55;;;;;;;1.95;1.38;;;;;;;25.50;28.95;96282.56;4960761;28;20047;-40
2020/12/01 06:55:54;;;;;;;1.55;1.40;;;;;;;25.51;28.94;96283.44;4963685;28;20578;-42
2020/12/01 06:58:21;;;;;;;1.73;1.20;;;;;;;25.50;28.96;96282.56;4956396;28;20035;-41
2020/12/01 07:00:46;;;;;;;2.05;1.55;;;;;;;25.52;29.07;96285.94;4964643;28;20130;-41
2020/12/01 07:03:22;;;;;;;2.00;1.45;;;;;;;25.52;28.94;96280.69;4966217;28;20051;-44
2020/12/01 07:05:48;;;;;;;1.58;1.38;;;;;;;25.52;29.05;96285.94;4962627;28;20185;-43
2020/12/01 07:08:14;;;;;;;2.22;1.38;;;;;;;25.53;29.06;96285.03;4963916;28;20051;-42
2020/12/01 07:10:40;;;;;;;1.23;1.02;;;;;;;25.54;29.06;96289.34;4959515;28;20043;-43
2020/12/01 07:13:15;;;;;;;2.25;1.38;;;;;;;25.55;28.96;96296.25;4964137;28;20053;-41
2020/12/01 07:15:51;;;;;;;1.30;1.20;;;;;;;25.56;28.80;96286.66;4935753;28;20042;-44
2020/12/01 07:18:26;;;;;;;1.52;1.17;;;;;;;25.57;29.05;96293.59;4955624;28;20182;-38
2020/12/01 07:21:17;;;;;;;2.05;1.55;;;;;;;25.59;29.06;96291.69;4947599;28;20037;-42
2020/12/01 07:23:49;;;;;;;2.45;1.55;;;;;;;25.59;28.88;96290.88;4960187;28;20043;-40
2020/12/01 07:26:36;;;;;;;2.53;1.60;;;;;;;25.57;28.95;96294.44;4954010;28;20070;-45
2020/12/01 07:29:24;;;;;;;1.88;1.30;;;;;;;25.54;28.95;96289.34;4965153;28;20030;-42
2020/12/01 07:31:50;;;;;;;10.43;2.42;;;;;;;25.50;28.36;96282.56;4963587;28;20050;-44
2020/12/01 07:34:27;;;;;;;6.43;1.58;;;;;;;25.48;29.21;96283.59;4957113;28;20042;-42
2020/12/01 07:36:56;;;;;;;3.58;1.75;;;;;;;25.44;29.04;96281.16;4956907;28;20089;-45
2020/12/01 07:39:28;;;;;;;3.80;1.67;;;;;;;25.43;29.28;96282.09;4952574;28;20038;-41
2020/12/01 07:41:56;;;;;;;4.45;2.22;;;;;;;25.41;27.40;96283.13;4953493;28;20031;-42
2020/12/01 07:44:24;;;;;;;7.95;2.42;;;;;;;25.34;26.22;96287.91;4955287;28;20101;-41
2020/12/01 07:47:13;;;;;;;3.50;2.13;;;;;;;25.21;26.71;96287.78;4955288;28;20042;-42
2020/12/01 07:49:38;;;;;;;5.60;2.80;;;;;;;25.16;25.77;96289.81;4978288;28;20122;-39
2020/12/01 07:52:15;;;;;;;6.38;2.67;;;;;;;25.03;25.70;96301.03;4951780;28;20511;-42
2020/12/01 07:54:46;;;;;;;5.00;2.50;;;;;;;24.90;25.67;96293.03;4957371;28;20031;-44
2020/12/01 07:57:22;;;;;;;4.07;2.40;;;;;;;24.77;25.73;96295.47;4958692;28;23146;-37
2020/12/01 07:59:49;;;;;;;5.65;2.33;;;;;;;24.63;25.41;96293.63;4957474;28;20085;-44
2020/12/01 08:02:15;;;;;;;7.78;2.03;;;;;;;24.50;25.62;96298.72;4957801;28;20050;-41
2020/12/01 08:04:41;;;;;;;4.40;2.20;;;;;;;24.39;25.50;96298.47;4955042;28;20049;-42
2020/12/01 08:07:11;;;;;;;5.35;2.40;;;;;;;24.30;25.40;96298.97;4955973;28;20043;-44
2020/12/01 08:09:36;;;;;;;5.68;2.65;;;;;;;24.22;25.94;96300.22;4970291;28;20066;-42
2020/12/01 08:12:03;;;;;;;9.02;2.60;;;;;;;24.16;25.84;96304.94;4953153;28;20480;-41
2020/12/01 08:14:30;;;;;;;8.27;2.42;;;;;;;24.08;25.73;96297.47;4959598;28;20043;-42
2020/12/01 08:17:05;;;;;;;8.52;2.63;;;;;;;24.01;25.63;96303.06;4954674;28;20500;-41
2020/12/01 08:19:31;;;;;;;4.30;2.20;;;;;;;23.96;25.90;96305.09;4949748;28;20054;-40
2020/12/01 08:21:57;;;;;;;4.32;2.25;;;;;;;23.91;25.95;96309.69;4963254;28;20054;-44
2020/12/01 08:24:23;;;;;;;8.25;2.85;;;;;;;23.87;26.10;96311.63;4967208;28;20073;-45
2020/12/01 08:27:04;;;;;;;2.38;1.75;;;;;;;23.92;28.42;96307.94;4939560;28;20047;-43
2020/12/01 08:29:31;;;;;;;7.47;2.00;;;;;;;24.00;28.98;96314.47;4965063;28;20039;-42
2020/12/01 08:32:18;;;;;;;3.08;1.65;;;;;;;24.16;29.12;96318.88;4940575;28;20513;-41
2020/12/01 08:35:06;;;;;;;4.95;1.80;;;;;;;24.29;28.94;96320.84;4950935;28;20077;-40
2020/12/01 08:37:49;;;;;;;2.88;1.70;;;;;;;24.39;29.04;96317.66;4953476;28;20066;-41
2020/12/01 08:40:36;;;;;;;2.92;1.67;;;;;;;24.45;29.35;96308.63;4964665;28;20124;-41
2020/12/01 08:43:24;;;;;;;3.72;1.70;;;;;;;24.49;29.11;96307.50;4966310;28;20046;-40
2020/12/01 08:45:54;;;;;;;2.83;1.90;;;;;;;24.56;29.25;96302.75;4953151;28;20061;-44
2020/12/01 08:48:22;;;;;;;4.38;2.10;;;;;;;24.60;29.32;96303.44;4959664;28;20063;-43
2020/12/01 08:50:56;;;;;;;3.78;2.75;;;;;;;24.64;29.19;96302.34;4962922;28;20046;-44
2020/12/01 08:53:22;;;;;;;4.35;2.42;;;;;;;24.70;29.28;96303.78;4963517;28;20027;-43
2020/12/01 08:55:50;;;;;;;6.68;2.38;;;;;;;24.75;29.12;96313.03;4959153;28;20674;-44
2020/12/01 08:58:29;;;;;;;4.75;2.10;;;;;;;24.84;29.23;96305.63;4967473;28;20046;-42
2020/12/01 09:00:54;;;;;;;6.75;2.80;;;;;;;24.83;24.22;96306.53;4960064;28;20050;-41
2020/12/01 09:03:20;;;;;;;4.20;2.75;;;;;;;24.43;21.24;96307.84;4961604;28;20035;-42
2020/12/01 09:05:49;;;;;;;8.10;3.50;;;;;;;23.81;21.54;96305.88;4954235;28;20030;-40
2020/12/01 09:11:35;;;;;;;13.30;4.00;;;;;;;23.39;26.27;96311.50;4955363;28;20119;-41
2020/12/01 09:14:24;;;;;;;8.65;3.45;;;;;;;23.44;27.03;96314.72;4960134;28;20050;-44
2020/12/01 09:16:58;;;;;;;8.38;3.60;;;;;;;23.52;27.90;96316.09;4955765;28;20050;-42
2020/12/01 09:22:25;;;;;;;14.52;3.30;;;;;;;23.67;28.20;96325.75;4952375;28;20523;-42
2020/12/01 09:24:51;;;;;;;4.53;3.17;;;;;;;23.75;28.23;96323.59;4952188;28;20086;-41
2020/12/01 09:27:17;;;;;;;6.63;3.28;;;;;;;23.84;28.51;96324.03;4952006;28;20069;-42
2020/12/01 09:29:46;;;;;;;6.32;3.00;;;;;;;23.92;28.30;96324.50;4950419;28;20220;-44
2020/12/01 09:32:19;;;;;;;3.88;2.60;;;;;;;24.02;28.17;96325.69;4954565;28;20043;-44
2020/12/01 09:34:44;;;;;;;7.35;2.95;;;;;;;24.07;28.39;96324.59;4954334;28;20039;-38
2020/12/01 09:37:10;;;;;;;3.78;2.63;;;;;;;23.93;28.94;96330.53;4959344;28;20516;-42
2020/12/01 09:39:37;;;;;;;8.10;2.90;;;;;;;23.81;29.52;96332.03;4958911;28;20062;-42
2020/12/01 09:42:22;;;;;;;5.18;2.55;;;;;;;23.79;29.72;96336.53;4958869;28;20185;-42
2020/12/01 09:45:31;;;;;;;5.07;3.00;;;;;;;23.87;29.79;96336.97;4956528;28;20027;-42
2020/12/01 09:47:51;;;;;;;10.73;3.10;;;;;;;24.02;29.92;96341.38;4959248;28;20105;-41
2020/12/01 09:50:23;;;;;;;12.23;2.80;;;;;;;24.19;29.45;96347.53;4967627;28;20081;-41
2020/12/01 09:53:20;;;;;;;;;;;;;;;24.37;29.34;96344.84;4977765;28;20038;-39
2020/12/01 10:13:56;;;;;;;4.63;2.53;;;;;;;25.68;27.15;96337.53;4975613;28;20132;-38
2020/12/01 10:35:22;;;;;;;11.30;3.22;;;;;;;26.26;27.00;96337.56;4972095;28;20049;-44
2020/12/01 10:37:55;;;;;;;10.23;2.88;;;;;;;26.23;27.04;96332.47;4970696;28;20512;-41
2020/12/01 10:40:22;;;;;;;11.70;3.08;;;;;;;26.19;27.02;96336.22;4980605;28;20479;-41
2020/12/01 10:42:48;;;;;;;10.10;3.58;;;;;;;26.17;27.13;96338.13;4985550;28;20042;-41
2020/12/01 10:45:14;;;;;;;10.00;3.28;;;;;;;26.15;27.05;96347.84;4985152;28;20571;-38
2020/12/01 10:47:40;;;;;;;8.88;3.42;;;;;;;26.14;27.13;96348.81;4988643;28;20108;-37
2020/12/01 10:50:06;;;;;;;13.23;3.50;;;;;;;26.13;27.20;96336.63;4984510;28;20507;-41
2020/12/01 10:52:32;;;;;;;10.18;3.40;;;;;;;26.15;27.26;96339.97;4987502;28;20051;-39
2020/12/01 10:54:57;;;;;;;7.15;3.25;;;;;;;26.14;27.26;96338.31;4984746;28;20054;-40
2020/12/01 10:57:23;;;;;;;7.70;3.30;;;;;;;26.15;27.23;96339.97;4978180;28;20515;-43
2020/12/01 10:59:48;;;;;;;8.15;3.28;;;;;;;26.15;27.29;96339.97;4983983;28;20066;-43
2020/12/01 11:02:14;;;;;;;12.05;3.28;;;;;;;26.17;27.28;96343.38;4998219;28;20042;-42
2020/12/01 11:04:39;;;;;;;8.90;3.72;;;;;;;26.17;27.31;96346.00;4982279;28;20042;-38
2020/12/01 11:07:05;;;;;;;7.20;3.13;;;;;;;26.17;27.31;96338.13;4983450;28;20485;-43
2020/12/01 11:09:31;;;;;;;10.93;3.30;;;;;;;26.18;27.31;96345.06;4989878;28;20041;-43
2020/12/01 11:11:57;;;;;;;9.00;3.20;;;;;;;26.20;27.24;96348.44;4988127;28;20424;-40
2020/12/01 11:14:22;;;;;;;11.93;3.58;;;;;;;26.20;27.13;96348.44;4987074;28;20799;-43
2020/12/01 11:16:47;;;;;;;10.50;3.40;;;;;;;26.20;27.18;96345.81;4977598;28;20049;-43
2020/12/01 11:19:13;;;;;;;10.27;3.28;;;;;;;26.21;27.21;96350.13;4987076;28;20038;-43
2020/12/01 11:21:39;;;;;;;8.32;3.10;;;;;;;26.20;27.15;96354.53;4973876;28;20133;-43
2020/12/01 11:24:05;;;;;;;8.50;3.17;;;;;;;26.19;27.29;96358.09;4981029;28;20072;-39
2020/12/01 11:26:30;;;;;;;7.22;2.85;;;;;;;26.19;27.36;96346.72;4979670;28;20038;-43
2020/12/01 11:28:56;;;;;;;7.97;3.05;;;;;;;26.18;27.23;96352.94;4982525;28;22268;-42
2020/12/01 11:31:22;;;;;;;7.60;3.40;;;;;;;26.18;27.49;96351.16;4984969;28;20104;-45
2020/12/01 11:34:02;;;;;;;7.80;3.30;;;;;;;26.17;27.38;96351.25;4979732;28;20471;-42
2020/12/01 11:36:27;;;;;;;7.75;3.30;;;;;;;26.16;27.26;96357.44;4970410;28;20520;-41
2020/12/01 11:38:53;;;;;;;6.95;3.00;;;;;;;26.15;27.37;96350.47;4967009;28;20130;-39
2020/12/01 11:41:19;;;;;;;7.25;2.85;;;;;;;26.14;27.45;96354.06;4975604;28;20090;-37
2020/12/01 11:43:45;;;;;;;7.40;3.08;;;;;;;26.13;27.52;96357.63;4979918;28;20045;-43
2020/12/01 11:46:11;;;;;;;11.35;3.15;;;;;;;26.12;27.56;96354.16;4972910;28;20035;-40
2020/12/01 11:48:37;;;;;;;8.02;2.83;;;;;;;26.10;27.50;96363.91;4969035;28;20059;-40
2020/12/01 11:51:03;;;;;;;7.82;3.40;;;;;;;26.09;27.72;96363.06;4969350;28;20109;-42
2020/12/01 11:53:29;;;;;;;8.20;2.53;;;;;;;26.07;27.68;96364.94;4968069;28;20061;-39
2020/12/01 11:55:55;;;;;;;8.25;3.00;;;;;;;26.06;27.70;96360.63;4986364;28;20046;-41
2020/12/01 11:58:20;;;;;;;8.93;3.10;;;;;;;26.05;27.68;96361.56;4987008;28;20069;-44
2020/12/01 12:00:46;;;;;;;7.03;3.10;;;;;;;26.05;27.64;96361.56;4969042;28;20042;-42
2020/12/01 12:03:12;;;;;;;6.57;2.97;;;;;;;26.04;27.67;96365.13;4972671;28;20539;-37
2020/12/01 12:05:37;;;;;;;6.35;3.00;;;;;;;26.02;27.59;96356.50;4978431;28;20066;-41
2020/12/01 12:08:04;;;;;;;6.97;2.85;;;;;;;26.01;27.64;96360.06;4977869;28;20042;-40
2020/12/01 12:10:29;;;;;;;6.80;2.78;;;;;;;26.02;27.73;96355.66;4982441;28;20066;-44
2020/12/01 12:12:55;;;;;;;7.63;2.90;;;;;;;26.01;27.85;96353.97;4967892;28;20061;-42
2020/12/01 12:15:21;;;;;;;5.90;2.97;;;;;;;26.00;27.88;96354.91;4972138;28;20039;-43
2020/12/01 12:17:47;;;;;;;5.68;2.50;;;;;;;25.96;27.83;96352.47;4970141;28;20057;-41
2020/12/01 12:20:13;;;;;;;4.65;2.40;;;;;;;25.95;27.90;96350.78;4968894;28;20676;-41
2020/12/01 12:22:39;;;;;;;6.50;2.45;;;;;;;25.94;27.90;96358.75;4972166;28;20063;-44
2020/12/01 12:25:04;;;;;;;6.10;2.70;;;;;;;25.94;28.01;96353.50;4983987;28;20054;-43
2020/12/01 12:27:32;;;;;;;4.78;2.50;;;;;;;25.93;27.96;96352.66;4969828;28;20046;-41
2020/12/01 12:29:58;;;;;;;5.60;2.70;;;;;;;25.93;28.06;96343.94;4973759;28;20423;-44
2020/12/01 12:32:23;;;;;;;6.90;2.63;;;;;;;25.92;28.05;96348.34;4981068;28;20034;-42